KDSV/DSV METAR and TAF weather

Enter ICAO airport designator
Station Type Date Time Source
KDSV METAR 2019/04/19 21:54 UTC NOAA

KDSV 192154Z AUTO 32014KT 8SM -RA BKN007 OVC037 12/10 A2962 RMK AO2 RAE03B25 SLP039 P0000 T01170100


Station Type Date Time Source
KDSV Decoded METAR 2019/04/19 21:54 UTC NOAA

DANSVILLE MUNICIPAL AIRPORT, NY, United States (KDSV) 42-34N 077-43W 198M
Apr 19, 2019 - 05:54 PM EDT / 2019.04.19 2154 UTC
Wind: from the NW (320 degrees) at 16 MPH (14 KT):0
Visibility: 8 mile(s):0
Sky conditions: overcast
Weather: light rain
Precipitation last hour: A trace
Temperature: 53.1 F (11.7 C)
Dew Point: 50.0 F (10.0 C)
Relative Humidity: 89%
Pressure (altimeter): 29.62 in. Hg (1003 hPa)
ob: KDSV 192154Z AUTO 32014KT 8SM -RA BKN007 OVC037 12/10 A2962 RMK AO2 RAE03B25 SLP039 P0000 T01170100
cycle: 22

Station Type Date Time Source
KDSV TAF UTC NOAA

Error!

Example: see airport list